Time;durP1;ratioP1;P1;durP2;ratioP2;P2;SDS_P1;SDS_P2;PMS_P1;PMS_P2;Temp;Humidity;BMP_temperature;BMP_pressure;BME280_temperature;BME280_humidity;BME280_pressure;Samples;Min_cycle;Max_cycle;Signal;HPM_P1;HPM_P2
2023/07/15 00:00:42;;;;;;;3.63;2.35;;;20.60;58.30;;;;;;5022254;28;20060;-63
2023/07/15 00:03:09;;;;;;;5.60;2.25;;;20.50;58.50;;;;;;5040586;28;20071;-61
2023/07/15 00:05:35;;;;;;;5.30;2.50;;;20.50;58.60;;;;;;5048442;28;20036;-61
2023/07/15 00:08:06;;;;;;;2.30;2.10;;;20.50;58.70;;;;;;5049524;28;20094;-61
2023/07/15 00:10:37;;;;;;;4.43;1.98;;;20.50;59.10;;;;;;5046214;28;20037;-61
2023/07/15 00:13:03;;;;;;;3.63;2.05;;;20.50;59.10;;;;;;5047796;28;20438;-61
2023/07/15 00:15:29;;;;;;;2.25;2.00;;;20.40;58.60;;;;;;5048051;28;20024;-61
2023/07/15 00:17:54;;;;;;;3.63;2.00;;;20.40;58.60;;;;;;5044659;28;20361;-61
2023/07/15 00:20:20;;;;;;;3.05;2.00;;;20.30;58.60;;;;;;5049464;28;20020;-60
2023/07/15 00:22:46;;;;;;;2.78;1.98;;;20.30;58.70;;;;;;5046032;28;20037;-61
2023/07/15 00:25:15;;;;;;;5.20;1.95;;;20.20;58.90;;;;;;5049562;28;20037;-62
2023/07/15 00:27:45;;;;;;;2.58;2.00;;;20.20;59.10;;;;;;5031790;28;20029;-61
2023/07/15 00:30:16;;;;;;;2.97;1.98;;;20.20;59.40;;;;;;5046329;28;20128;-60
2023/07/15 00:32:45;;;;;;;2.72;2.10;;;20.10;59.30;;;;;;5043568;28;20032;-61
2023/07/15 00:35:18;;;;;;;7.93;2.30;;;20.10;59.60;;;;;;5041929;28;20026;-62
2023/07/15 00:37:44;;;;;;;3.92;2.25;;;20.10;59.80;;;;;;5038219;28;20017;-61
2023/07/15 00:40:11;;;;;;;2.63;2.28;;;20.10;59.50;;;;;;5047540;28;20079;-61
2023/07/15 00:43:18;;;;;;;2.72;2.42;;;20.00;59.50;;;;;;5043995;28;20029;-62
2023/07/15 00:45:43;;;;;;;4.55;2.20;;;20.00;60.50;;;;;;4969500;28;20027;-60
2023/07/15 00:48:16;;;;;;;3.50;2.17;;;20.00;59.30;;;;;;4986442;28;20041;-62
2023/07/15 00:50:43;;;;;;;4.35;2.30;;;20.00;59.70;;;;;;4984690;28;20042;-61
2023/07/15 00:53:12;;;;;;;3.83;2.28;;;19.90;59.80;;;;;;4985577;28;20034;-61
2023/07/15 00:55:38;;;;;;;6.80;2.50;;;19.90;60.10;;;;;;4985090;28;20081;-61
2023/07/15 00:58:04;;;;;;;3.53;2.25;;;19.90;60.00;;;;;;4988277;28;20117;-61
2023/07/15 01:00:33;;;;;;;2.80;2.30;;;19.90;60.00;;;;;;4985647;28;20023;-61
2023/07/15 01:02:59;;;;;;;6.85;2.22;;;19.90;60.40;;;;;;4988096;28;20038;-61
2023/07/15 01:05:27;;;;;;;4.07;2.30;;;19.80;60.10;;;;;;4988758;28;20531;-62
2023/07/15 01:07:53;;;;;;;2.83;2.30;;;19.80;60.30;;;;;;4987900;28;20511;-61
2023/07/15 01:10:19;;;;;;;6.20;2.50;;;19.80;60.40;;;;;;4971959;28;20047;-61
2023/07/15 01:12:44;;;;;;;3.17;2.13;;;19.80;60.50;;;;;;4987736;28;20036;-61
2023/07/15 01:15:10;;;;;;;2.67;2.45;;;19.70;60.60;;;;;;4988329;28;20033;-63
2023/07/15 01:17:36;;;;;;;3.33;2.45;;;19.70;60.70;;;;;;4988558;28;20062;-61
2023/07/15 01:20:03;;;;;;;4.35;2.22;;;19.70;60.90;;;;;;4970044;28;20410;-61
2023/07/15 01:22:29;;;;;;;2.45;2.15;;;19.70;61.00;;;;;;5018019;28;20044;-61
2023/07/15 01:24:54;;;;;;;5.18;2.30;;;19.60;61.10;;;;;;5043853;28;20033;-61
2023/07/15 01:27:20;;;;;;;2.55;2.22;;;19.60;61.10;;;;;;5048079;28;20112;-61
2023/07/15 01:29:46;;;;;;;3.90;2.53;;;19.60;61.10;;;;;;5044965;28;20037;-61
2023/07/15 01:32:12;;;;;;;3.25;2.60;;;19.60;61.20;;;;;;5040093;28;20305;-62
2023/07/15 01:34:37;;;;;;;3.15;2.20;;;19.60;61.40;;;;;;5043624;28;20021;-62
2023/07/15 01:37:03;;;;;;;3.10;2.30;;;19.60;61.50;;;;;;5044439;28;20480;-61
2023/07/15 01:39:29;;;;;;;3.85;2.70;;;19.60;61.50;;;;;;4940119;28;20033;-61
2023/07/15 01:41:55;;;;;;;2.97;2.17;;;19.50;61.40;;;;;;5044022;28;20036;-61
2023/07/15 01:44:23;;;;;;;4.25;2.50;;;19.50;61.40;;;;;;5047079;28;20405;-61
2023/07/15 01:46:49;;;;;;;4.78;2.20;;;19.50;61.60;;;;;;5040241;28;20094;-61
2023/07/15 01:49:15;;;;;;;4.65;2.30;;;19.50;61.50;;;;;;5045822;28;20660;-61
2023/07/15 01:51:40;;;;;;;3.05;2.17;;;19.50;61.40;;;;;;5036150;28;20047;-62
2023/07/15 01:54:06;;;;;;;3.83;2.03;;;19.50;61.40;;;;;;5042562;28;20025;-61
2023/07/15 01:56:32;;;;;;;2.30;2.10;;;19.40;61.40;;;;;;5045362;28;20033;-62
2023/07/15 01:58:57;;;;;;;2.83;1.98;;;19.40;61.50;;;;;;5046826;28;20037;-63
2023/07/15 02:01:23;;;;;;;2.63;2.22;;;19.40;61.50;;;;;;5038857;28;20083;-61
2023/07/15 02:03:49;;;;;;;4.55;2.35;;;19.30;61.50;;;;;;5045762;28;20115;-62
2023/07/15 02:06:14;;;;;;;4.00;1.98;;;19.30;61.50;;;;;;5045156;28;20025;-61
2023/07/15 02:08:41;;;;;;;3.05;1.80;;;19.30;61.50;;;;;;5042680;28;20052;-60
2023/07/15 02:11:07;;;;;;;2.90;1.83;;;19.30;61.30;;;;;;5045778;28;20039;-62
2023/07/15 02:13:32;;;;;;;2.58;2.05;;;19.20;61.40;;;;;;5042705;28;20519;-61
2023/07/15 02:15:58;;;;;;;5.85;2.17;;;19.20;61.60;;;;;;5047189;28;20060;-62
2023/07/15 02:18:25;;;;;;;3.58;2.28;;;19.20;61.60;;;;;;5046761;28;20372;-61
2023/07/15 02:20:51;;;;;;;2.78;2.20;;;19.20;61.80;;;;;;5043307;28;20021;-60
2023/07/15 02:23:17;;;;;;;3.40;2.25;;;19.10;61.80;;;;;;5043448;28;20467;-61
2023/07/15 02:25:42;;;;;;;3.40;2.20;;;19.10;61.90;;;;;;5038538;28;20083;-61
2023/07/15 02:28:08;;;;;;;4.13;2.50;;;19.10;61.90;;;;;;5036669;28;20112;-62
2023/07/15 02:30:34;;;;;;;3.25;2.33;;;19.00;62.00;;;;;;5045862;28;20025;-62
2023/07/15 02:33:01;;;;;;;4.53;2.50;;;19.00;62.20;;;;;;5044334;28;20047;-62
2023/07/15 02:35:27;;;;;;;2.83;2.10;;;19.00;62.30;;;;;;5043930;28;20025;-62
2023/07/15 02:37:54;;;;;;;3.42;2.30;;;19.00;62.40;;;;;;5045689;28;20023;-62
2023/07/15 02:40:20;;;;;;;5.20;2.28;;;19.00;62.50;;;;;;4942500;28;20033;-62
2023/07/15 02:42:46;;;;;;;3.03;2.35;;;18.90;62.50;;;;;;5046535;28;20021;-62
2023/07/15 02:45:15;;;;;;;3.28;2.53;;;18.90;62.70;;;;;;5043028;28;20027;-62
2023/07/15 02:47:40;;;;;;;5.65;2.60;;;18.90;62.90;;;;;;5035222;28;20026;-62
2023/07/15 02:50:08;;;;;;;2.97;2.30;;;18.90;62.90;;;;;;5046165;28;20037;-62
2023/07/15 02:52:35;;;;;;;3.53;2.40;;;18.90;62.90;;;;;;5041870;28;20017;-61
2023/07/15 02:55:06;;;;;;;3.38;2.33;;;19.20;63.20;;;;;;5042734;28;20071;-62
2023/07/15 02:57:33;;;;;;;3.75;2.20;;;18.90;63.30;;;;;;5040205;28;20028;-60
2023/07/15 02:59:59;;;;;;;3.13;2.22;;;18.90;62.90;;;;;;5038753;28;20032;-61
2023/07/15 03:02:25;;;;;;;3.78;2.28;;;18.90;62.90;;;;;;5042810;28;20103;-61
2023/07/15 03:04:51;;;;;;;5.80;2.53;;;18.80;63.00;;;;;;5037045;28;20405;-61
2023/07/15 03:07:17;;;;;;;3.33;2.38;;;18.90;63.10;;;;;;5042432;28;20372;-62
2023/07/15 03:09:44;;;;;;;3.83;2.65;;;18.80;63.10;;;;;;5039256;28;20373;-62
2023/07/15 03:12:11;;;;;;;3.75;2.25;;;18.80;63.10;;;;;;5038749;28;20017;-61
2023/07/15 03:14:36;;;;;;;7.28;2.50;;;18.80;63.10;;;;;;5039657;28;20021;-60
2023/07/15 03:17:03;;;;;;;8.93;2.45;;;18.80;63.10;;;;;;5035753;28;20468;-61
2023/07/15 03:19:31;;;;;;;2.42;2.10;;;18.80;63.10;;;;;;5046475;28;20076;-61
2023/07/15 03:21:57;;;;;;;6.07;2.25;;;18.80;63.70;;;;;;5045452;28;20025;-61
2023/07/15 03:24:25;;;;;;;3.95;2.40;;;18.80;62.90;;;;;;5036257;28;20021;-61
2023/07/15 03:26:52;;;;;;;3.38;2.50;;;18.70;63.00;;;;;;5022910;28;20033;-61
2023/07/15 03:29:17;;;;;;;2.60;2.38;;;18.70;63.10;;;;;;5042606;28;20477;-61
2023/07/15 03:31:43;;;;;;;2.78;2.00;;;18.60;63.10;;;;;;5024282;28;20067;-61
2023/07/15 03:34:09;;;;;;;3.67;2.20;;;18.60;63.20;;;;;;5043826;28;20029;-60
2023/07/15 03:36:35;;;;;;;3.70;2.40;;;18.60;63.10;;;;;;5043671;28;20029;-62
2023/07/15 03:39:00;;;;;;;5.85;2.63;;;18.60;63.00;;;;;;5044438;28;20505;-61
2023/07/15 03:41:26;;;;;;;2.85;2.17;;;18.60;63.20;;;;;;5040773;28;20096;-60
2023/07/15 03:43:52;;;;;;;3.38;2.35;;;18.50;63.30;;;;;;5042189;28;20467;-60
2023/07/15 03:46:17;;;;;;;2.95;2.15;;;18.50;63.40;;;;;;5039562;28;20025;-61
2023/07/15 03:48:43;;;;;;;4.00;2.67;;;18.50;63.70;;;;;;5045228;28;20037;-61
2023/07/15 03:51:09;;;;;;;3.33;2.50;;;18.50;63.70;;;;;;5041524;28;20049;-60
2023/07/15 03:53:35;;;;;;;5.07;2.85;;;18.50;63.80;;;;;;5044797;28;20025;-61
2023/07/15 03:56:01;;;;;;;5.68;2.35;;;18.50;63.80;;;;;;5035901;28;20049;-61
2023/07/15 03:58:27;;;;;;;5.60;2.55;;;18.50;63.70;;;;;;5039000;28;20048;-61
2023/07/15 04:00:52;;;;;;;4.95;2.60;;;18.40;63.50;;;;;;5047089;28;20055;-61
2023/07/15 04:03:19;;;;;;;2.75;2.33;;;18.50;63.50;;;;;;5043765;28;20029;-60
2023/07/15 04:05:46;;;;;;;4.22;2.42;;;18.40;63.60;;;;;;5038854;28;20055;-61
2023/07/15 04:08:12;;;;;;;3.10;2.28;;;18.40;63.70;;;;;;5040736;28;20036;-60
2023/07/15 04:10:38;;;;;;;3.05;2.20;;;18.40;64.00;;;;;;5042134;28;20488;-61
2023/07/15 04:13:04;;;;;;;4.63;2.40;;;18.40;64.20;;;;;;5043089;28;20033;-62
2023/07/15 04:15:30;;;;;;;2.78;2.30;;;18.40;64.40;;;;;;5042236;28;20029;-59
2023/07/15 04:17:56;;;;;;;5.00;2.60;;;18.40;64.40;;;;;;5042157;28;20555;-62
2023/07/15 04:20:22;;;;;;;5.95;2.50;;;18.40;64.60;;;;;;5043270;28;20112;-60
2023/07/15 04:22:48;;;;;;;3.95;2.65;;;18.40;64.70;;;;;;5023576;28;20025;-61
2023/07/15 04:25:14;;;;;;;3.50;2.35;;;18.50;64.80;;;;;;5042251;28;20025;-61
2023/07/15 04:27:40;;;;;;;3.22;2.53;;;18.50;65.00;;;;;;5043721;28;20036;-61
2023/07/15 04:30:08;;;;;;;6.38;2.28;;;18.50;65.00;;;;;;5023993;28;20071;-60
2023/07/15 04:32:34;;;;;;;3.55;2.70;;;18.60;64.90;;;;;;5045750;28;20025;-62
2023/07/15 04:35:01;;;;;;;6.90;2.70;;;18.70;65.00;;;;;;5047434;28;20036;-61
2023/07/15 04:37:27;;;;;;;3.95;2.60;;;18.70;65.00;;;;;;5046123;28;20029;-61
2023/07/15 04:39:53;;;;;;;5.03;2.80;;;18.80;65.10;;;;;;4960431;28;20530;-60
2023/07/15 04:42:19;;;;;;;3.20;2.50;;;18.90;65.10;;;;;;5039340;28;20108;-60
2023/07/15 04:44:44;;;;;;;4.57;2.30;;;18.90;65.10;;;;;;5046471;28;20078;-60
2023/07/15 04:47:10;;;;;;;4.88;2.70;;;19.00;65.00;;;;;;5045205;28;20066;-60
2023/07/15 04:49:36;;;;;;;3.95;2.60;;;19.10;65.00;;;;;;5048097;28;20040;-60
2023/07/15 04:52:01;;;;;;;3.15;2.45;;;19.20;64.90;;;;;;5047372;28;20029;-60
2023/07/15 04:54:27;;;;;;;4.63;2.40;;;19.30;64.80;;;;;;5044263;28;20049;-61
2023/07/15 04:56:53;;;;;;;5.28;3.00;;;19.40;64.80;;;;;;5047755;28;20021;-62
2023/07/15 04:59:19;;;;;;;3.92;2.75;;;19.40;64.70;;;;;;5044592;28;20029;-62
2023/07/15 05:01:45;;;;;;;5.57;3.08;;;19.50;64.90;;;;;;5042296;28;20416;-62
2023/07/15 05:04:10;;;;;;;4.00;2.60;;;19.60;64.70;;;;;;5035173;28;20415;-62
2023/07/15 05:06:37;;;;;;;6.45;2.78;;;19.70;64.70;;;;;;5048324;28;20531;-61
2023/07/15 05:09:04;;;;;;;4.32;2.33;;;19.80;64.50;;;;;;5044772;28;20517;-61
2023/07/15 05:11:30;;;;;;;4.18;2.55;;;19.90;64.40;;;;;;5043464;28;20024;-60
2023/07/15 05:13:56;;;;;;;6.18;2.65;;;20.00;64.50;;;;;;5046363;28;20036;-61
2023/07/15 05:16:22;;;;;;;5.55;2.35;;;20.10;64.50;;;;;;5046741;28;20040;-61
2023/07/15 05:18:47;;;;;;;5.32;2.53;;;20.20;64.40;;;;;;5042497;28;20029;-61
2023/07/15 05:21:14;;;;;;;3.58;2.17;;;20.30;64.20;;;;;;5045315;28;20026;-61
2023/07/15 05:23:40;;;;;;;8.48;2.47;;;20.40;64.20;;;;;;5044678;28;20017;-61
2023/07/15 05:26:06;;;;;;;4.38;2.67;;;20.50;64.20;;;;;;5048820;28;20033;-61
2023/07/15 05:28:32;;;;;;;4.07;2.60;;;20.60;64.10;;;;;;5047601;28;20044;-61
2023/07/15 05:30:59;;;;;;;3.50;2.85;;;20.70;64.00;;;;;;5045042;28;20067;-61
2023/07/15 05:33:24;;;;;;;3.20;2.80;;;20.80;63.80;;;;;;5045900;28;20032;-61
2023/07/15 05:35:50;;;;;;;3.88;3.03;;;21.00;63.70;;;;;;5039659;28;20108;-60
2023/07/15 05:38:16;;;;;;;5.65;3.17;;;21.10;63.60;;;;;;5045706;28;20029;-60
2023/07/15 05:40:42;;;;;;;4.45;3.00;;;21.20;63.50;;;;;;5027206;28;20029;-61
2023/07/15 05:43:10;;;;;;;4.03;3.13;;;21.30;63.60;;;;;;5047246;28;20079;-60
2023/07/15 05:45:36;;;;;;;3.97;2.92;;;21.50;63.40;;;;;;5042970;28;20033;-61
2023/07/15 05:48:02;;;;;;;5.93;3.05;;;21.60;63.00;;;;;;5046902;28;20395;-60
2023/07/15 05:50:32;;;;;;;9.05;3.38;;;21.70;62.80;;;;;;5040538;28;20087;-60
2023/07/15 05:52:58;;;;;;;5.90;2.90;;;21.80;62.60;;;;;;5044182;28;20037;-60
2023/07/15 05:55:23;;;;;;;4.88;3.50;;;22.00;62.50;;;;;;5043651;28;20049;-62
2023/07/15 05:57:49;;;;;;;4.97;3.58;;;22.10;62.40;;;;;;5041240;28;20540;-62
2023/07/15 06:00:15;;;;;;;4.65;3.28;;;22.20;62.10;;;;;;5042586;28;20104;-61
2023/07/15 06:02:41;;;;;;;5.60;3.83;;;22.30;61.90;;;;;;5044645;28;20063;-63
2023/07/15 06:05:07;;;;;;;7.85;3.65;;;22.40;61.70;;;;;;5040095;28;20375;-60
2023/07/15 06:07:33;;;;;;;4.43;3.47;;;22.60;61.60;;;;;;5048839;28;20056;-61
2023/07/15 06:09:59;;;;;;;7.13;3.80;;;22.70;61.30;;;;;;5042857;28;20547;-61
2023/07/15 06:12:24;;;;;;;5.18;3.42;;;22.90;61.00;;;;;;5047277;28;20057;-61
2023/07/15 06:14:50;;;;;;;8.73;4.05;;;23.00;60.70;;;;;;5040779;28;20040;-62
2023/07/15 06:17:16;;;;;;;5.93;4.32;;;23.10;60.50;;;;;;5045957;28;20483;-61
2023/07/15 06:19:42;;;;;;;6.93;4.20;;;23.20;60.20;;;;;;5042493;28;20033;-61
2023/07/15 06:22:07;;;;;;;6.68;4.13;;;23.40;60.00;;;;;;5043013;28;20048;-63
2023/07/15 06:24:34;;;;;;;6.78;4.22;;;23.50;59.70;;;;;;5041326;28;20104;-61
2023/07/15 06:26:59;;;;;;;11.77;4.40;;;23.60;59.50;;;;;;5042999;28;20025;-62
2023/07/15 06:29:25;;;;;;;10.65;4.00;;;23.70;59.20;;;;;;5039545;28;20394;-62
2023/07/15 06:31:51;;;;;;;4.15;3.17;;;23.80;59.00;;;;;;5041433;28;20033;-62
2023/07/15 06:34:17;;;;;;;5.32;3.45;;;24.00;58.80;;;;;;5038469;28;20437;-61
2023/07/15 06:36:42;;;;;;;4.85;3.28;;;24.10;58.60;;;;;;5035903;28;20044;-61
2023/07/15 06:39:18;;;;;;;8.60;4.07;;;24.20;58.40;;;;;;5021846;28;20090;-63
2023/07/15 06:41:43;;;;;;;4.03;3.20;;;24.30;58.10;;;;;;5015676;28;20033;-62
2023/07/15 06:44:09;;;;;;;6.53;3.42;;;24.50;58.10;;;;;;5048949;28;20028;-62
2023/07/15 06:46:35;;;;;;;4.68;3.28;;;24.70;57.80;;;;;;5038704;28;20037;-62
2023/07/15 06:49:01;;;;;;;6.50;3.15;;;24.80;57.50;;;;;;5040206;28;20122;-62
2023/07/15 06:51:26;;;;;;;6.72;4.05;;;24.90;57.40;;;;;;5021993;28;20024;-62
2023/07/15 06:53:52;;;;;;;8.15;3.50;;;25.10;57.00;;;;;;5035406;28;20429;-62
2023/07/15 06:56:18;;;;;;;5.95;3.45;;;25.20;57.00;;;;;;5041333;28;20178;-63
2023/07/15 06:58:43;;;;;;;6.22;2.70;;;25.40;57.00;;;;;;5043970;28;20025;-62
2023/07/15 07:01:09;;;;;;;5.03;3.17;;;25.40;56.50;;;;;;5042934;28;20029;-62
2023/07/15 07:03:35;;;;;;;5.05;2.92;;;25.60;56.60;;;;;;5044023;28;20143;-62
2023/07/15 07:06:01;;;;;;;9.40;3.20;;;25.70;56.50;;;;;;5045060;28;20033;-62
2023/07/15 07:08:27;;;;;;;9.40;3.47;;;25.90;56.30;;;;;;5043176;28;20380;-61
2023/07/15 07:10:53;;;;;;;5.15;3.13;;;26.00;56.30;;;;;;5041792;28;20029;-60
2023/07/15 07:13:19;;;;;;;5.25;2.95;;;26.10;56.10;;;;;;5043376;28;20026;-63
2023/07/15 07:15:47;;;;;;;4.72;3.10;;;26.20;55.80;;;;;;5039409;28;20028;-61
2023/07/15 07:18:13;;;;;;;6.65;3.13;;;26.40;56.50;;;;;;5038628;28;20136;-62
2023/07/15 07:20:38;;;;;;;6.47;3.30;;;26.50;55.50;;;;;;5034992;28;20032;-62
2023/07/15 07:23:04;;;;;;;4.25;3.10;;;26.60;55.30;;;;;;5041360;28;20037;-61
2023/07/15 07:25:30;;;;;;;5.20;2.92;;;26.80;55.60;;;;;;5043434;28;20086;-61
2023/07/15 07:27:56;;;;;;;3.88;2.90;;;26.90;54.90;;;;;;5037888;28;20167;-61
2023/07/15 07:30:22;;;;;;;10.73;2.53;;;27.00;54.70;;;;;;5042007;28;20044;-61
2023/07/15 07:32:48;;;;;;;4.97;2.63;;;27.10;54.30;;;;;;5036900;28;20116;-61
2023/07/15 07:35:14;;;;;;;6.50;2.97;;;27.30;54.60;;;;;;5042539;28;20368;-62
2023/07/15 07:37:40;;;;;;;10.05;2.85;;;27.40;54.30;;;;;;5038095;28;20078;-62
2023/07/15 07:40:09;;;;;;;5.90;2.40;;;27.50;53.90;;;;;;4949124;28;20485;-62
2023/07/15 07:42:35;;;;;;;7.68;2.60;;;27.70;54.50;;;;;;5035537;28;20022;-62
2023/07/15 07:45:10;;;;;;;4.32;2.53;;;27.80;53.70;;;;;;5042110;28;20037;-62
2023/07/15 07:47:36;;;;;;;3.45;2.30;;;27.90;53.70;;;;;;5039782;28;20029;-61
2023/07/15 07:50:02;;;;;;;6.10;2.90;;;28.10;53.50;;;;;;5035920;28;20392;-62
2023/07/15 07:52:27;;;;;;;3.92;2.30;;;28.20;53.40;;;;;;5036183;28;20511;-62
2023/07/15 07:54:53;;;;;;;5.28;2.40;;;28.30;53.20;;;;;;5041313;28;20065;-62
2023/07/15 07:57:19;;;;;;;2.97;2.35;;;28.40;52.70;;;;;;5039987;28;20025;-62
2023/07/15 07:59:44;;;;;;;2.33;1.98;;;28.60;52.20;;;;;;5039773;28;20044;-61
2023/07/15 08:02:10;;;;;;;5.13;2.17;;;28.70;52.40;;;;;;5018790;28;20037;-62
2023/07/15 08:04:36;;;;;;;3.72;2.55;;;28.80;52.70;;;;;;5023323;28;20021;-61
2023/07/15 08:07:01;;;;;;;8.23;2.53;;;28.90;51.70;;;;;;5038177;28;20491;-62
2023/07/15 08:09:27;;;;;;;9.95;2.55;;;29.00;51.90;;;;;;5039640;28;20087;-62
2023/07/15 08:11:52;;;;;;;3.63;2.10;;;29.20;51.60;;;;;;5050127;28;20037;-61
2023/07/15 08:14:18;;;;;;;3.78;2.30;;;29.30;51.40;;;;;;5041903;28;20439;-62
2023/07/15 08:16:44;;;;;;;3.20;2.08;;;29.50;51.30;;;;;;5044081;28;20529;-63
2023/07/15 08:19:10;;;;;;;3.60;2.25;;;29.60;51.10;;;;;;5044038;28;20109;-61
2023/07/15 08:21:37;;;;;;;3.67;2.22;;;29.70;50.70;;;;;;5044343;28;20455;-61
2023/07/15 08:24:03;;;;;;;3.50;1.98;;;29.90;50.10;;;;;;5049181;28;20108;-61
2023/07/15 08:26:29;;;;;;;5.63;2.72;;;30.00;50.00;;;;;;5048368;28;20437;-61
2023/07/15 08:28:55;;;;;;;3.03;1.80;;;30.20;50.00;;;;;;5026996;28;20073;-61
2023/07/15 08:31:21;;;;;;;4.47;1.83;;;30.30;49.80;;;;;;5039677;28;20543;-62
2023/07/15 08:33:46;;;;;;;4.72;1.85;;;30.50;49.50;;;;;;5040929;28;20033;-62
2023/07/15 08:36:13;;;;;;;3.30;1.73;;;30.70;49.50;;;;;;5042238;28;20545;-62
2023/07/15 08:38:38;;;;;;;3.55;1.80;;;30.80;48.30;;;;;;5041432;28;20038;-63
2023/07/15 08:41:04;;;;;;;2.08;1.80;;;31.00;47.70;;;;;;5045221;28;20025;-62
2023/07/15 08:43:30;;;;;;;5.00;1.88;;;31.10;46.80;;;;;;5049040;28;20031;-65
2023/07/15 08:46:00;;;;;;;3.03;1.60;;;31.30;46.70;;;;;;5047769;28;20471;-62
2023/07/15 08:48:26;;;;;;;2.78;1.60;;;31.40;45.90;;;;;;5040762;28;20024;-62
2023/07/15 08:50:56;;;;;;;5.15;2.10;;;31.50;45.60;;;;;;5045400;28;20058;-63
2023/07/15 08:53:27;;;;;;;3.30;1.52;;;31.70;44.90;;;;;;5047763;28;20025;-63
2023/07/15 08:55:56;;;;;;;2.95;1.60;;;31.80;44.30;;;;;;5033981;28;20103;-63
2023/07/15 08:58:23;;;;;;;12.85;2.00;;;31.90;44.30;;;;;;5032673;28;20081;-63
2023/07/15 09:00:53;;;;;;;7.90;1.92;;;32.00;44.40;;;;;;5024115;28;20034;-63
2023/07/15 09:03:19;;;;;;;3.40;1.70;;;32.10;43.70;;;;;;5000150;28;21152;-63
2023/07/15 09:05:45;;;;;;;3.33;1.77;;;32.20;44.30;;;;;;5029212;28;20029;-62
2023/07/15 09:08:13;;;;;;;5.07;1.55;;;32.30;44.00;;;;;;5025604;28;20014;-62
2023/07/15 09:10:55;;;;;;;2.22;1.60;;;32.40;43.30;;;;;;5031946;28;20287;-63
2023/07/15 09:13:32;;;;;;;3.35;1.60;;;32.50;42.70;;;;;;5030166;28;20368;-63
2023/07/15 09:15:59;;;;;;;5.40;1.80;;;32.60;41.90;;;;;;5037800;28;20021;-63
2023/07/15 09:18:25;;;;;;;3.17;1.75;;;32.70;42.70;;;;;;5029837;28;20460;-63
2023/07/15 09:21:10;;;;;;;3.45;1.83;;;32.80;42.60;;;;;;5029017;28;20044;-62
2023/07/15 09:23:40;;;;;;;3.90;1.80;;;32.80;42.00;;;;;;5027711;28;20029;-63
2023/07/15 09:26:07;;;;;;;4.03;1.50;;;32.90;41.70;;;;;;5019379;28;20017;-64
2023/07/15 09:28:34;;;;;;;2.40;1.50;;;33.10;42.30;;;;;;5035813;28;20021;-62
2023/07/15 09:31:00;;;;;;;2.42;1.63;;;33.10;41.70;;;;;;5031416;28;20036;-64
2023/07/15 09:33:47;;;;;;;2.83;1.55;;;33.30;41.40;;;;;;5025149;28;20044;-62
2023/07/15 09:36:12;;;;;;;2.42;1.70;;;33.40;40.60;;;;;;5023261;28;20444;-64
2023/07/15 09:38:39;;;;;;;5.45;1.33;;;33.60;41.30;;;;;;5012171;28;20029;-62
2023/07/15 09:41:09;;;;;;;3.45;1.70;;;33.70;40.80;;;;;;5028437;28;20026;-64
2023/07/15 09:43:48;;;;;;;2.80;1.48;;;33.70;39.80;;;;;;5031782;28;20025;-64
2023/07/15 09:46:16;;;;;;;9.00;1.63;;;33.80;39.20;;;;;;5024118;28;20053;-64
2023/07/15 09:48:43;;;;;;;3.30;1.60;;;33.90;40.00;;;;;;5024119;28;20403;-65
2023/07/15 09:51:12;;;;;;;3.50;1.90;;;34.00;39.50;;;;;;5032170;28;20029;-64
2023/07/15 09:53:43;;;;;;;1.58;1.48;;;34.00;39.60;;;;;;5016236;28;20133;-63
2023/07/15 09:56:10;;;;;;;1.92;1.30;;;34.10;39.80;;;;;;5039331;28;20094;-63
2023/07/15 09:58:39;;;;;;;2.65;1.70;;;34.20;39.70;;;;;;5042291;28;20029;-63
2023/07/15 10:01:17;;;;;;;7.32;2.08;;;34.30;39.60;;;;;;5034414;28;20036;-64
2023/07/15 10:03:50;;;;;;;1.55;1.23;;;34.40;39.70;;;;;;5033708;28;20048;-64
2023/07/15 10:06:17;;;;;;;5.82;1.60;;;34.50;40.10;;;;;;5042852;28;20400;-62
2023/07/15 10:08:47;;;;;;;2.40;1.75;;;34.60;39.50;;;;;;5041526;28;20040;-64
2023/07/15 10:11:15;;;;;;;5.80;1.70;;;34.70;39.70;;;;;;5044412;28;20357;-62
2023/07/15 10:13:41;;;;;;;2.90;1.77;;;34.70;39.80;;;;;;5047154;28;20037;-63
2023/07/15 10:16:07;;;;;;;5.85;1.50;;;34.80;39.20;;;;;;5044485;28;20020;-62
2023/07/15 10:18:33;;;;;;;2.30;1.60;;;34.80;38.70;;;;;;5035806;28;20035;-63
2023/07/15 10:21:03;;;;;;;2.08;1.48;;;34.90;39.10;;;;;;5044602;28;20116;-63
2023/07/15 10:23:32;;;;;;;2.25;1.73;;;34.90;38.50;;;;;;5045575;28;20025;-63
2023/07/15 10:26:03;;;;;;;5.95;2.00;;;35.00;39.10;;;;;;5034929;28;20014;-63
2023/07/15 10:28:39;;;;;;;1.75;1.58;;;35.10;39.00;;;;;;5037337;28;20028;-64
2023/07/15 10:31:07;;;;;;;2.03;1.40;;;35.20;38.20;;;;;;5041844;28;20029;-63
2023/07/15 10:33:35;;;;;;;3.42;1.80;;;35.20;38.00;;;;;;5038341;28;20028;-63
2023/07/15 10:36:04;;;;;;;1.60;1.50;;;35.30;37.80;;;;;;5041829;28;20017;-62
2023/07/15 10:38:31;;;;;;;3.60;1.80;;;35.40;37.60;;;;;;5046342;28;20120;-64
2023/07/15 10:41:02;;;;;;;1.60;1.48;;;35.40;38.00;;;;;;5047198;28;20028;-63
2023/07/15 10:43:34;;;;;;;2.20;1.67;;;35.50;37.80;;;;;;5043932;28;20039;-63
2023/07/15 10:46:02;;;;;;;5.78;2.15;;;35.60;38.00;;;;;;5038567;28;20416;-62
2023/07/15 10:48:28;;;;;;;3.88;1.58;;;35.70;37.10;;;;;;5047342;28;20110;-63
2023/07/15 10:50:55;;;;;;;2.60;1.70;;;35.80;36.20;;;;;;5041722;28;20060;-63
2023/07/15 10:53:23;;;;;;;1.73;1.40;;;35.90;36.30;;;;;;5046289;28;20083;-63
2023/07/15 10:56:02;;;;;;;1.65;1.40;;;35.90;35.90;;;;;;5046227;28;20044;-65
2023/07/15 10:58:29;;;;;;;2.60;1.40;;;36.00;36.40;;;;;;5045733;28;20025;-63
2023/07/15 11:01:00;;;;;;;2.08;1.30;;;36.10;36.00;;;;;;5045633;28;20166;-63
2023/07/15 11:03:27;;;;;;;3.28;1.30;;;36.10;34.20;;;;;;5044448;28;20029;-65
2023/07/15 11:05:55;;;;;;;3.90;1.50;;;36.20;35.50;;;;;;5044724;28;20122;-64
2023/07/15 11:08:21;;;;;;;2.90;1.50;;;36.20;35.60;;;;;;5023205;28;20120;-64
2023/07/15 11:10:49;;;;;;;2.70;1.40;;;36.20;34.40;;;;;;5041610;28;20162;-63
2023/07/15 11:13:17;;;;;;;3.83;1.60;;;36.30;32.70;;;;;;5043423;28;20048;-63
2023/07/15 11:15:46;;;;;;;2.42;1.45;;;36.30;32.00;;;;;;5046043;28;20021;-63
2023/07/15 11:18:19;;;;;;;2.85;1.23;;;36.30;32.20;;;;;;5040981;28;20112;-63
2023/07/15 11:20:46;;;;;;;4.28;1.45;;;36.30;33.60;;;;;;5037135;28;20404;-63
2023/07/15 11:23:12;;;;;;;3.75;1.80;;;36.40;33.70;;;;;;5043752;28;20028;-64
2023/07/15 11:25:38;;;;;;;2.80;1.30;;;36.50;33.10;;;;;;5046281;28;20025;-64
2023/07/15 11:28:05;;;;;;;1.65;1.27;;;36.50;34.00;;;;;;5043417;28;20360;-63
2023/07/15 11:30:42;;;;;;;1.92;1.40;;;36.60;33.70;;;;;;5045666;28;20033;-63
2023/07/15 11:33:08;;;;;;;3.90;1.30;;;36.60;32.90;;;;;;5046155;28;20036;-64
2023/07/15 11:35:35;;;;;;;2.17;1.38;;;36.70;32.70;;;;;;5039691;28;20017;-63
2023/07/15 11:38:11;;;;;;;1.55;1.45;;;36.70;33.00;;;;;;5044343;28;20044;-63
2023/07/15 11:41:00;;;;;;;3.15;1.30;;;36.70;32.50;;;;;;5039331;28;20510;-64
2023/07/15 11:43:30;;;;;;;4.65;1.20;;;36.80;33.60;;;;;;5042150;28;20033;-62
2023/07/15 11:46:00;;;;;;;2.38;1.58;;;36.80;31.90;;;;;;5036266;28;20028;-64
2023/07/15 11:48:31;;;;;;;3.55;1.60;;;36.90;32.20;;;;;;5044004;28;20025;-64
2023/07/15 11:51:06;;;;;;;3.33;1.60;;;36.90;32.50;;;;;;5023209;28;20128;-64
2023/07/15 11:53:34;;;;;;;1.50;1.40;;;37.00;32.80;;;;;;5039906;28;20498;-64
2023/07/15 11:56:01;;;;;;;3.88;1.10;;;37.10;32.40;;;;;;5037202;28;20370;-64
2023/07/15 11:58:40;;;;;;;3.67;1.33;;;37.10;32.30;;;;;;5046587;28;20040;-64
2023/07/15 12:01:07;;;;;;;15.10;4.18;;;37.20;31.70;;;;;;5042378;28;20029;-64
2023/07/15 12:03:34;;;;;;;7.07;1.83;;;37.30;31.70;;;;;;5043323;28;20032;-64
2023/07/15 12:05:59;;;;;;;2.65;1.42;;;37.40;31.70;;;;;;5039782;28;20059;-65
2023/07/15 12:08:25;;;;;;;4.38;1.20;;;37.50;31.70;;;;;;5024872;28;20021;-63
2023/07/15 12:10:54;;;;;;;1.52;1.05;;;37.60;31.30;;;;;;5035628;28;20029;-65
2023/07/15 12:13:20;;;;;;;4.38;1.27;;;37.70;31.00;;;;;;5039510;28;20036;-64
2023/07/15 12:15:46;;;;;;;1.83;1.10;;;37.70;30.80;;;;;;5040292;28;20029;-66
2023/07/15 12:18:12;;;;;;;1.98;1.33;;;37.80;31.50;;;;;;5042565;28;20035;-64
2023/07/15 12:20:38;;;;;;;1.75;1.20;;;37.90;31.80;;;;;;5044245;28;20447;-64
2023/07/15 12:23:04;;;;;;;1.83;1.30;;;38.00;31.70;;;;;;5040246;28;20035;-64
2023/07/15 12:25:30;;;;;;;1.05;1.00;;;38.10;30.70;;;;;;5038781;28;20041;-63
2023/07/15 12:27:55;;;;;;;1.23;1.10;;;38.20;30.00;;;;;;5027441;28;20022;-63
2023/07/15 12:30:21;;;;;;;2.80;1.30;;;38.20;30.00;;;;;;5046406;28;20059;-64
2023/07/15 12:32:47;;;;;;;4.00;1.27;;;38.40;30.10;;;;;;5045987;28;20110;-63
2023/07/15 12:35:13;;;;;;;1.60;1.20;;;38.40;29.80;;;;;;5042082;28;20061;-63
2023/07/15 12:37:39;;;;;;;3.72;1.30;;;38.40;29.60;;;;;;5045101;28;20104;-64
2023/07/15 12:40:07;;;;;;;1.10;1.00;;;38.60;29.40;;;;;;4952704;28;20025;-63
2023/07/15 12:42:33;;;;;;;3.03;1.52;;;38.60;28.80;;;;;;5046806;28;20120;-64
2023/07/15 12:44:59;;;;;;;1.20;0.93;;;38.70;28.80;;;;;;5038657;28;20085;-65